createdAt,value
2023-02-23T00:02:55.977Z,95879.00
2023-02-23T00:06:59.930Z,95887.00
2023-02-23T00:11:05.519Z,95875.00
2023-02-23T00:15:09.926Z,95873.00
2023-02-23T00:19:14.212Z,95871.00
2023-02-23T00:23:17.291Z,95877.00
2023-02-23T00:27:22.075Z,95874.00
2023-02-23T00:31:30.930Z,95875.00
2023-02-23T00:35:34.680Z,95873.00
2023-02-23T00:39:38.285Z,95869.00
2023-02-23T00:43:47.580Z,95865.00
2023-02-23T00:47:51.877Z,95879.00
2023-02-23T00:51:58.527Z,95874.00
2023-02-23T00:56:01.561Z,95873.00
2023-02-23T01:00:15.126Z,95873.00
2023-02-23T01:04:18.429Z,95883.00
2023-02-23T01:08:22.442Z,95891.00
2023-02-23T01:12:25.490Z,95880.00
2023-02-23T01:16:36.647Z,95881.00
2023-02-23T01:20:42.518Z,95884.00
2023-02-23T01:24:45.575Z,95873.00
2023-02-23T01:28:50.661Z,95863.00
2023-02-23T01:32:58.269Z,95863.00
2023-02-23T01:37:01.264Z,95866.00
2023-02-23T01:41:04.974Z,95865.00
2023-02-23T01:45:24.924Z,95871.00
2023-02-23T01:49:34.548Z,95868.00
2023-02-23T01:53:44.115Z,95871.00
2023-02-23T01:57:53.561Z,95879.00
2023-02-23T02:01:59.997Z,95878.00
2023-02-23T02:06:10.989Z,95877.00
2023-02-23T02:10:34.228Z,95874.00
2023-02-23T02:14:38.674Z,95869.00
2023-02-23T02:18:57.401Z,95869.00
2023-02-23T02:23:29.561Z,95863.00
2023-02-23T02:28:04.327Z,95862.00
2023-02-23T02:32:47.907Z,95856.00
2023-02-23T02:37:21.010Z,95855.00
2023-02-23T02:41:35.640Z,95860.00
2023-02-23T02:45:49.895Z,95861.00
2023-02-23T02:50:08.486Z,95857.00
2023-02-23T02:54:29.447Z,95860.00
2023-02-23T02:58:34.796Z,95864.00
2023-02-23T03:02:58.687Z,95866.00
2023-02-23T03:07:28.604Z,95864.00
2023-02-23T03:11:58.302Z,95864.00
2023-02-23T03:16:28.888Z,95862.00
2023-02-23T03:21:01.781Z,95870.00
2023-02-23T03:25:29.175Z,95875.00
2023-02-23T03:29:59.215Z,95872.00
2023-02-23T03:34:29.031Z,95873.00
2023-02-23T03:38:59.058Z,95874.00
2023-02-23T03:43:21.344Z,95874.00
2023-02-23T03:47:51.347Z,95870.00
2023-02-23T03:52:17.070Z,95868.00
2023-02-23T03:56:40.176Z,95876.00
2023-02-23T04:01:04.320Z,95876.00
2023-02-23T04:05:30.172Z,95870.00
2023-02-23T04:09:51.499Z,95872.00
2023-02-23T04:14:01.024Z,95874.00
2023-02-23T04:18:08.143Z,95879.00
2023-02-23T04:22:15.416Z,95876.00
2023-02-23T04:26:18.450Z,95876.00
2023-02-23T04:30:26.369Z,95873.00
2023-02-23T04:34:32.752Z,95871.00
2023-02-23T04:38:37.337Z,95860.00
2023-02-23T04:42:41.271Z,95870.00
2023-02-23T04:46:44.793Z,95876.00
2023-02-23T04:50:47.823Z,95887.00
2023-02-23T04:54:52.250Z,95888.00
2023-02-23T04:58:56.348Z,95895.00
2023-02-23T05:03:02.757Z,95893.00
2023-02-23T05:07:06.270Z,95891.00
2023-02-23T05:11:11.740Z,95887.00
2023-02-23T05:15:15.796Z,95887.00
2023-02-23T05:19:18.826Z,95883.00
2023-02-23T05:23:24.164Z,95890.00
2023-02-23T05:27:32.550Z,95880.00
2023-02-23T05:31:36.363Z,95882.00
2023-02-23T05:35:41.225Z,95875.00
2023-02-23T05:39:44.601Z,95877.00
2023-02-23T05:43:55.279Z,95877.00
2023-02-23T05:48:00.658Z,95881.00
2023-02-23T05:52:03.945Z,95886.00
2023-02-23T05:56:13.481Z,95893.00
2023-02-23T06:00:22.892Z,95902.00
2023-02-23T06:04:25.959Z,95910.00
2023-02-23T06:08:34.116Z,95908.00
2023-02-23T06:12:37.557Z,95914.00
2023-02-23T06:16:45.372Z,95914.00
2023-02-23T06:20:57.588Z,95925.00
2023-02-23T06:25:05.697Z,95921.00
2023-02-23T06:29:12.213Z,95924.00
2023-02-23T06:33:17.149Z,95925.00
2023-02-23T06:37:20.170Z,95928.00
2023-02-23T06:41:29.509Z,95924.00
2023-02-23T06:45:34.757Z,95924.00
2023-02-23T06:49:40.503Z,95936.00
2023-02-23T06:53:45.413Z,95931.00
2023-02-23T06:57:51.389Z,95939.00
2023-02-23T07:01:54.464Z,95937.00
2023-02-23T07:05:58.999Z,95936.00
2023-02-23T07:10:02.055Z,95945.00
2023-02-23T07:14:05.213Z,95939.00
2023-02-23T07:18:09.391Z,95945.00
2023-02-23T07:22:15.184Z,95943.00
2023-02-23T07:26:20.534Z,95946.00
2023-02-23T07:30:25.162Z,95952.00
2023-02-23T07:34:30.957Z,95952.00
2023-02-23T07:38:35.662Z,95945.00
2023-02-23T07:42:38.970Z,95958.00
2023-02-23T07:46:42.214Z,95956.00
2023-02-23T07:50:47.377Z,95954.00
2023-02-23T07:54:52.158Z,95958.00
2023-02-23T07:58:57.104Z,95964.00
2023-02-23T08:03:02.986Z,95974.00
2023-02-23T08:07:06.117Z,95962.00
2023-02-23T08:11:13.124Z,95975.00
2023-02-23T08:15:21.014Z,95984.00
2023-02-23T08:19:28.950Z,95979.00
2023-02-23T08:23:32.720Z,95983.00
2023-02-23T08:27:38.129Z,95985.00
2023-02-23T08:31:41.292Z,95983.00
2023-02-23T08:35:45.305Z,95994.00
2023-02-23T08:39:48.407Z,95981.00
2023-02-23T08:43:53.300Z,95995.00
2023-02-23T08:47:58.899Z,95997.00
2023-02-23T08:52:01.954Z,95996.00
2023-02-23T08:56:10.510Z,96004.00
2023-02-23T09:00:19.501Z,95998.00
2023-02-23T09:04:22.615Z,96001.00
2023-02-23T09:08:26.943Z,96002.00
2023-02-23T09:12:31.563Z,96001.00
2023-02-23T09:16:36.305Z,95997.00
2023-02-23T09:20:42.724Z,96007.00
2023-02-23T09:24:46.309Z,96006.00
2023-02-23T09:28:49.558Z,96006.00
2023-02-23T09:32:58.447Z,96008.00
2023-02-23T09:37:06.509Z,96006.00
2023-02-23T09:41:32.094Z,96012.00
2023-02-23T09:45:44.880Z,96013.00
2023-02-23T09:49:51.042Z,96006.00
2023-02-23T09:54:01.954Z,96015.00
2023-02-23T09:58:11.308Z,96015.00
2023-02-23T10:02:25.748Z,96020.00
2023-02-23T10:06:37.856Z,96020.00
2023-02-23T10:10:48.530Z,96016.00
2023-02-23T10:15:06.715Z,96018.00
2023-02-23T10:19:20.531Z,96023.00
2023-02-23T10:23:31.346Z,96027.00
2023-02-23T10:27:42.149Z,96023.00
2023-02-23T10:31:51.058Z,96020.00
2023-02-23T10:36:12.527Z,96021.00
2023-02-23T10:40:23.576Z,96028.00
2023-02-23T10:44:29.764Z,96018.00
2023-02-23T10:48:42.058Z,96015.00
2023-02-23T10:52:47.973Z,96015.00
2023-02-23T10:56:54.089Z,96017.00
2023-02-23T11:01:01.131Z,96015.00
2023-02-23T11:05:27.053Z,96010.00
2023-02-23T11:09:46.176Z,96011.00
2023-02-23T11:13:53.073Z,95998.00
2023-02-23T11:18:02.678Z,95996.00
2023-02-23T11:22:15.224Z,95982.00
2023-02-23T11:26:32.450Z,95977.00
2023-02-23T11:30:44.777Z,95983.00
2023-02-23T11:34:49.632Z,95975.00
2023-02-23T11:39:04.288Z,95979.00
2023-02-23T11:43:11.059Z,95972.00
2023-02-23T11:47:26.249Z,95976.00
2023-02-23T11:51:37.265Z,95966.00
2023-02-23T11:55:49.698Z,95964.00
2023-02-23T11:59:55.594Z,95959.00
2023-02-23T12:04:29.268Z,95960.00
2023-02-23T12:08:41.523Z,95962.00
2023-02-23T12:13:01.459Z,95964.00
2023-02-23T12:17:09.830Z,95958.00
2023-02-23T12:21:31.419Z,95958.00
2023-02-23T12:25:40.036Z,95952.00
2023-02-23T12:29:53.539Z,95953.00
2023-02-23T12:34:01.855Z,95950.00
2023-02-23T12:38:12.929Z,95947.00
2023-02-23T12:42:22.328Z,95945.00
2023-02-23T12:46:29.329Z,95947.00
2023-02-23T12:50:35.695Z,95936.00
2023-02-23T12:54:40.554Z,95935.00
2023-02-23T12:58:52.288Z,95934.00
2023-02-23T13:03:25.366Z,95931.00
2023-02-23T13:07:36.767Z,95924.00
2023-02-23T13:12:14.028Z,95927.00
2023-02-23T13:16:27.536Z,95917.00
2023-02-23T13:20:36.575Z,95919.00
2023-02-23T13:24:43.760Z,95918.00
2023-02-23T13:28:57.364Z,95928.00
2023-02-23T13:33:05.157Z,95920.00
2023-02-23T13:37:12.361Z,95915.00
2023-02-23T13:41:34.270Z,95916.00
2023-02-23T13:45:46.349Z,95905.00
2023-02-23T13:49:56.309Z,95909.00
2023-02-23T13:54:24.408Z,95916.00
2023-02-23T13:58:31.047Z,95912.00
2023-02-23T14:02:41.511Z,95912.00
2023-02-23T14:06:56.702Z,95913.00
2023-02-23T14:11:04.958Z,95917.00
2023-02-23T14:15:42.464Z,95916.00
2023-02-23T14:20:09.848Z,95918.00
2023-02-23T14:24:21.151Z,95913.00
2023-02-23T14:28:31.310Z,95913.00
2023-02-23T14:32:40.081Z,95908.00
2023-02-23T14:36:47.081Z,95902.00
2023-02-23T14:40:51.801Z,95907.00
2023-02-23T14:44:57.222Z,95908.00
2023-02-23T14:49:05.637Z,95898.00
2023-02-23T14:53:22.427Z,95898.00
2023-02-23T14:57:44.666Z,95897.00
2023-02-23T15:01:48.759Z,95890.00
2023-02-23T15:05:54.997Z,95889.00
2023-02-23T15:10:01.371Z,95888.00
2023-02-23T15:14:08.801Z,95887.00
2023-02-23T15:18:29.285Z,95893.00
2023-02-23T15:22:35.524Z,95888.00
2023-02-23T15:26:43.804Z,95893.00
2023-02-23T15:30:48.988Z,95893.00
2023-02-23T15:34:53.223Z,95890.00
2023-02-23T15:39:00.465Z,95886.00
2023-02-23T15:43:05.105Z,95880.00
2023-02-23T15:47:16.861Z,95881.00
2023-02-23T15:51:34.041Z,95881.00
2023-02-23T15:55:40.728Z,95894.00
2023-02-23T15:59:48.557Z,95895.00
2023-02-23T16:04:00.614Z,95898.00
2023-02-23T16:08:26.015Z,95895.00
2023-02-23T16:12:34.769Z,95894.00
2023-02-23T16:16:39.458Z,95901.00
2023-02-23T16:20:47.028Z,95899.00
2023-02-23T16:25:00.474Z,95899.00
2023-02-23T16:29:07.442Z,95909.00
2023-02-23T16:33:19.925Z,95906.00
2023-02-23T16:37:31.206Z,95900.00
2023-02-23T16:41:38.159Z,95898.00
2023-02-23T16:45:43.046Z,95897.00
2023-02-23T16:49:48.088Z,95899.00
2023-02-23T16:53:52.605Z,95891.00
2023-02-23T16:58:01.055Z,95895.00
2023-02-23T17:02:09.838Z,95901.00
2023-02-23T17:06:14.307Z,95901.00
2023-02-23T17:10:25.193Z,95900.00
2023-02-23T17:14:31.966Z,95899.00
2023-02-23T17:18:43.005Z,95900.00
2023-02-23T17:22:50.757Z,95914.00
2023-02-23T17:26:57.857Z,95915.00
2023-02-23T17:31:04.026Z,95911.00
2023-02-23T17:35:10.072Z,95923.00
2023-02-23T17:39:16.897Z,95916.00
2023-02-23T17:43:23.230Z,95917.00
2023-02-23T17:47:29.870Z,95922.00
2023-02-23T17:51:43.747Z,95919.00
2023-02-23T17:55:51.362Z,95919.00
2023-02-23T17:59:55.553Z,95915.00
2023-02-23T18:04:02.780Z,95928.00
2023-02-23T18:08:10.572Z,95921.00
2023-02-23T18:12:15.015Z,95916.00
2023-02-23T18:16:18.942Z,95918.00
2023-02-23T18:20:22.370Z,95919.00
2023-02-23T18:24:28.684Z,95911.00
2023-02-23T18:28:33.375Z,95916.00
2023-02-23T18:32:39.357Z,95917.00
2023-02-23T18:36:43.604Z,95913.00
2023-02-23T18:40:49.206Z,95907.00
2023-02-23T18:44:57.142Z,95906.00
2023-02-23T18:49:03.759Z,95901.00
2023-02-23T18:53:09.801Z,95894.00
2023-02-23T18:57:14.271Z,95898.00
2023-02-23T19:01:22.619Z,95898.00
2023-02-23T19:05:26.001Z,95902.00
2023-02-23T19:09:29.136Z,95895.00
2023-02-23T19:13:38.129Z,95899.00
2023-02-23T19:17:43.208Z,95897.00
2023-02-23T19:21:49.261Z,95895.00
2023-02-23T19:25:52.672Z,95893.00
2023-02-23T19:29:56.787Z,95895.00
2023-02-23T19:34:05.180Z,95887.00
2023-02-23T19:38:09.995Z,95879.00
2023-02-23T19:42:18.400Z,95885.00
2023-02-23T19:46:21.433Z,95888.00
2023-02-23T19:50:25.839Z,95879.00
2023-02-23T19:54:38.030Z,95887.00
2023-02-23T19:58:44.770Z,95886.00
2023-02-23T20:02:54.974Z,95875.00
2023-02-23T20:06:59.591Z,95879.00
2023-02-23T20:11:07.071Z,95875.00
2023-02-23T20:15:15.286Z,95881.00
2023-02-23T20:19:19.848Z,95874.00
2023-02-23T20:23:26.843Z,95875.00
2023-02-23T20:27:30.090Z,95875.00
2023-02-23T20:31:36.956Z,95873.00
2023-02-23T20:35:45.069Z,95873.00
2023-02-23T20:39:49.515Z,95881.00
2023-02-23T20:43:52.711Z,95875.00
2023-02-23T20:47:58.611Z,95879.00
2023-02-23T20:52:03.345Z,95878.00
2023-02-23T20:56:10.395Z,95871.00
2023-02-23T21:00:23.326Z,95878.00
2023-02-23T21:04:26.835Z,95879.00
2023-02-23T21:08:30.186Z,95872.00
2023-02-23T21:12:35.687Z,95869.00
2023-02-23T21:16:40.941Z,95869.00
2023-02-23T21:20:44.918Z,95873.00
2023-02-23T21:24:51.479Z,95870.00
2023-02-23T21:28:59.082Z,95871.00
2023-02-23T21:33:06.212Z,95859.00
2023-02-23T21:37:11.905Z,95857.00
2023-02-23T21:41:17.394Z,95857.00
2023-02-23T21:45:24.183Z,95858.00
2023-02-23T21:49:30.289Z,95861.00
2023-02-23T21:53:33.623Z,95852.00
2023-02-23T21:57:36.698Z,95849.00
2023-02-23T22:01:44.991Z,95857.00
2023-02-23T22:05:51.042Z,95850.00
2023-02-23T22:09:54.993Z,95844.00
2023-02-23T22:13:59.954Z,95845.00
2023-02-23T22:18:05.797Z,95845.00
2023-02-23T22:22:08.798Z,95854.00
2023-02-23T22:26:12.126Z,95849.00
2023-02-23T22:30:16.993Z,95856.00
2023-02-23T22:34:29.000Z,95842.00
2023-02-23T22:38:32.012Z,95843.00
2023-02-23T22:42:36.421Z,95843.00
2023-02-23T22:46:40.174Z,95841.00
2023-02-23T22:50:45.219Z,95845.00
2023-02-23T22:54:48.225Z,95839.00
2023-02-23T22:58:54.379Z,95843.00
2023-02-23T23:03:02.221Z,95831.00
2023-02-23T23:07:08.683Z,95826.00
2023-02-23T23:11:13.821Z,95821.00
2023-02-23T23:15:22.613Z,95829.00
2023-02-23T23:19:27.043Z,95821.00
2023-02-23T23:23:34.943Z,95812.00
2023-02-23T23:27:41.478Z,95811.00
2023-02-23T23:31:49.138Z,95807.00
2023-02-23T23:35:54.522Z,95800.00
2023-02-23T23:40:14.456Z,95791.00
2023-02-23T23:44:18.840Z,95787.00
2023-02-23T23:48:21.850Z,95783.00
2023-02-23T23:52:30.015Z,95783.00
2023-02-23T23:56:37.394Z,95777.00
